WetterOnline ( https://www.wetteronline.de )

Wetter aktuell Stendal

Aktuelles Wetter: Genthin (39m)

6-stündlich | Neueste Meldungen
Ortszeit Temperatur Wetter
Di, 18.06. 2:00 10.9° C wolkig
Mo, 17.06. 20:00 20.4° C wolkig
Mo, 17.06. 14:00 22.8° C bewölkt
Mo, 17.06. 8:00 18.7° C leicht bewölkt
Mo, 17.06. 2:00 14.2° C bewölkt
So, 16.06. 20:00 22.5° C bedeckt
So, 16.06. 14:00 22.2° C bewölkt
So, 16.06. 8:00 16.4° C wolkenlos
Ortszeit Temperatur Wetter
Di, 18.06. 4:30 11.4° C Nebel
Di, 18.06. 4:20 11.4° C bewölkt
Di, 18.06. 4:10 11.0° C Dunst
Di, 18.06. 4:00 10.8° C Nebel
Di, 18.06. 3:50 10.8° C Dunst
Di, 18.06. 3:40 10.9° C Nebel
Di, 18.06. 3:30 10.9° C Nebel
Di, 18.06. 3:00 10.8° C wolkig
Di, 18.06. 2:30 11.0° C bewölkt
Di, 18.06. 2:00 10.9° C wolkig
Di, 18.06. 1:30 11.8° C wolkig
Ortszeit Relative Feuchte Sichtweite
Di, 18.06. 2:00 95% 27 km
Mo, 17.06. 20:00 65% 60 km
Mo, 17.06. 14:00 51% 50 km
Mo, 17.06. 8:00 61% 55 km
Mo, 17.06. 2:00 79% 60 km
So, 16.06. 20:00 39% 65 km
So, 16.06. 14:00 44% 65 km
So, 16.06. 8:00 61% 60 km
Ortszeit Relative Feuchte Sichtweite
Di, 18.06. 4:30 98% 21 km
Di, 18.06. 4:20 98% -
Di, 18.06. 4:10 96% -
Di, 18.06. 4:00 98% 4.0 km
Di, 18.06. 3:50 98% -
Di, 18.06. 3:40 98% -
Di, 18.06. 3:30 98% 0.2 km
Di, 18.06. 3:00 95% 30 km
Di, 18.06. 2:30 96% 15 km
Di, 18.06. 2:00 95% 27 km
Di, 18.06. 1:30 97% 40 km
Ortszeit Niederschlagsmenge Niederschlagsart
Di, 18.06. 2:00 0.0 l/m2 in 6 Std. -
Mo, 17.06. 20:00 0.1 l/m2 in 12 Std. Regen
Mo, 17.06. 14:00 0.0 l/m2 in 6 Std. -
Mo, 17.06. 8:00 0.0 l/m2 in 12 Std. -
Mo, 17.06. 2:00 0.0 l/m2 in 6 Std. -
So, 16.06. 20:00 0.1 l/m2 in 12 Std. Regen
So, 16.06. 14:00 0.0 l/m2 in 6 Std. -
So, 16.06. 8:00 0.0 l/m2 in 12 Std. -
Ortszeit Niederschlagsmenge Niederschlagsart
Di, 18.06. 4:30 0.0 l/m2 in 30 Min -
Di, 18.06. 4:20 keine Meldung -
Di, 18.06. 4:10 keine Meldung -
Di, 18.06. 4:00 0.0 l/m2 in 1 Std. -
Di, 18.06. 3:50 keine Meldung -
Di, 18.06. 3:40 keine Meldung -
Di, 18.06. 3:30 0.0 l/m2 in 30 Min -
Di, 18.06. 3:00 0.0 l/m2 in 1 Std. -
Di, 18.06. 2:30 0.0 l/m2 in 30 Min -
Di, 18.06. 2:00 0.0 l/m2 in 1 Std. -
Di, 18.06. 1:30 0.0 l/m2 in 30 Min -
Ortszeit Stärke Spitze Richtung
km/h Bft. km/h Grad Sektor
Di, 18.06. 2:00 2 1 22 160° S
Mo, 17.06. 20:00 7 2 40 280° W
Mo, 17.06. 14:00 11 2 29 220° SW
Mo, 17.06. 8:00 7 2 14 220° SW
Mo, 17.06. 2:00 4 1 22 180° S
So, 16.06. 20:00 11 2 39 210° SW
So, 16.06. 14:00 14 3 32 200° S
So, 16.06. 8:00 7 2 14 170° S
Ortszeit Stärke Spitze Richtung
km/h Bft. km/h Grad Sektor
Di, 18.06. 4:30 4 1 7 200° S
Di, 18.06. 4:20 4 1 - 200° S
Di, 18.06. 4:10 2 1 - 190° S
Di, 18.06. 4:00 0 0 7 - -
Di, 18.06. 3:50 2 1 - 220° SW
Di, 18.06. 3:40 2 1 - 250° W
Di, 18.06. 3:30 4 1 4 170° S
Di, 18.06. 3:00 2 1 6 180° S
Di, 18.06. 2:30 4 1 4 160° S
Di, 18.06. 2:00 2 1 4 160° S
Di, 18.06. 1:30 4 1 4 120° SO
Ortszeit Untergrenze Bedeckung Gattung
total tief tief mittel hoch
Di, 18.06. 2:00 3600 m 8/8 2/8 - - -
Mo, 17.06. 20:00 3000 m 8/8 1/8 - - -
Mo, 17.06. 14:00 1290 m 7/8 6/8 - - -
Mo, 17.06. 8:00 7200 m 7/8 0/8 - - -
Mo, 17.06. 2:00 2400 m 7/8 7/8 - - -
So, 16.06. 20:00 3600 m 8/8 8/8 - - -
So, 16.06. 14:00 1500 m 7/8 6/8 - - -
So, 16.06. 8:00 - 0/8 0/8 - - -
Ortszeit Bedeckungsgrad in Achtel und Wolkenuntergrenze
Di, 18.06. 4:30 7(2100m)
Di, 18.06. 4:20 7(2100m)
Di, 18.06. 4:10 7
Di, 18.06. 4:00 3(2400m) 5(8700m) 7(9000m)
Di, 18.06. 3:50 3(2400m) 5(8700m) 7(9000m)
Di, 18.06. 3:40 7
Di, 18.06. 3:30 1(9000m) 6(9000m)
Di, 18.06. 3:00 2(3000m) 7(9000m)
Di, 18.06. 2:30 7(3300m) 8(9000m) 8(10500m)
Di, 18.06. 2:00 2(3600m) 8(9000m) 8(9000m)
Di, 18.06. 1:30 7(9000m) 8(9000m)
Ortszeit Luftdruck NN (hPa) Tendenz (hPa in 3 Std.)
Di, 18.06. 2:00 1015 + 0,7
Mo, 17.06. 20:00 1013 + 1,3
Mo, 17.06. 14:00 1012 + 0,1
Mo, 17.06. 8:00 1011 + 0,2
Mo, 17.06. 2:00 1011 + 0,6
So, 16.06. 20:00 1008 0,0
So, 16.06. 14:00 1009 - 0,6
So, 16.06. 8:00 1010 + 0,2
Ortszeit Luftdruck NN (hPa) Tendenz (hPa in 3 Std.)
Di, 18.06. 4:30 1015 + 0,2
Di, 18.06. 4:20 1015 keine Meldung
Di, 18.06. 4:10 1015 keine Meldung
Di, 18.06. 4:00 1015 + 0,2
Di, 18.06. 3:50 1015 keine Meldung
Di, 18.06. 3:40 1015 keine Meldung
Di, 18.06. 3:30 1015 + 0,4
Di, 18.06. 3:00 1015 + 0,6
Di, 18.06. 2:30 1015 + 0,5
Di, 18.06. 2:00 1015 + 0,7
Di, 18.06. 1:30 1015 + 0,8
Ortszeit Schneehöhe (cm)
Di, 18.06. 2:00 0
Mo, 17.06. 20:00 0
Mo, 17.06. 14:00 0
Mo, 17.06. 8:00 0
Mo, 17.06. 2:00 0
So, 16.06. 20:00 0
So, 16.06. 14:00 0
So, 16.06. 8:00 0
Ortszeit Schneehöhe (cm)
Di, 18.06. 4:30 0
Di, 18.06. 4:20 0
Di, 18.06. 4:10 -
Di, 18.06. 4:00 0
Di, 18.06. 3:50 0
Di, 18.06. 3:40 -
Di, 18.06. 3:30 0
Di, 18.06. 3:00 0
Di, 18.06. 2:30 0
Di, 18.06. 2:00 0
Di, 18.06. 1:30 0
Link zu dieser Seite / Seite empfehlen

Das Wetter in ...